Time;durP1;ratioP1;P1;durP2;ratioP2;P2;SDS_P1;SDS_P2;PMS_P1;PMS_P2;Temp;Humidity;BMP_temperature;BMP_pressure;BME280_temperature;BME280_humidity;BME280_pressure;Samples;Min_cycle;Max_cycle;Signal;HPM_P1;HPM_P2
2023/05/29 00:00:33;;;;;;;6.40;3.60;;;;;;;23.37;46.28;96169.91;5039352;28;20028;-33
2023/05/29 00:02:58;;;;;;;4.85;3.47;;;;;;;23.39;46.38;96164.59;5033133;28;20017;-32
2023/05/29 00:05:23;;;;;;;5.35;3.78;;;;;;;23.23;46.86;96158.72;5033843;28;20527;-32
2023/05/29 00:07:50;;;;;;;5.13;3.22;;;;;;;23.43;46.06;96162.31;5032806;28;20112;-32
2023/05/29 00:10:16;;;;;;;5.43;3.53;;;;;;;23.46;45.97;96153.72;5033642;28;20033;-32
2023/05/29 00:12:41;;;;;;;4.57;3.53;;;;;;;23.43;46.26;96156.75;5037596;28;20025;-32
2023/05/29 00:15:10;;;;;;;3.63;3.08;;;;;;;23.37;46.67;96158.84;5036288;28;20064;-32
2023/05/29 00:17:35;;;;;;;5.40;3.45;;;;;;;23.16;46.99;96150.22;5040350;28;20032;-33
2023/05/29 00:20:06;;;;;;;4.40;3.05;;;;;;;23.27;46.83;96142.56;5032210;28;20022;-32
2023/05/29 00:22:32;;;;;;;4.35;2.92;;;;;;;23.36;46.92;96143.53;5033682;28;20052;-32
2023/05/29 00:24:57;;;;;;;3.72;2.85;;;;;;;23.41;46.81;96137.16;5033419;28;20060;-33
2023/05/29 00:27:22;;;;;;;4.53;2.90;;;;;;;23.48;46.32;96136.59;5040236;28;20415;-32
2023/05/29 00:29:48;;;;;;;4.70;3.38;;;;;;;23.42;46.72;96139.41;5040497;28;20063;-32
2023/05/29 00:32:15;;;;;;;3.72;3.03;;;;;;;23.49;46.60;96143.63;5044537;28;20123;-33
2023/05/29 00:34:40;;;;;;;3.80;3.05;;;;;;;23.28;47.29;96141.31;5034795;28;20083;-32
2023/05/29 00:37:06;;;;;;;5.03;3.30;;;;;;;23.42;46.43;96141.44;5033723;28;20429;-32
2023/05/29 00:39:31;;;;;;;4.00;3.28;;;;;;;23.33;46.58;96136.25;5032711;28;20029;-33
2023/05/29 00:41:57;;;;;;;3.83;3.20;;;;;;;23.25;47.03;96131.25;5033906;28;20373;-32
2023/05/29 00:44:22;;;;;;;4.85;3.45;;;;;;;23.20;47.08;96134.84;5038488;28;20021;-32
2023/05/29 00:46:50;;;;;;;6.13;3.38;;;;;;;23.45;46.48;96127.31;5042372;28;20025;-33
2023/05/29 00:49:16;;;;;;;6.82;3.35;;;;;;;23.42;46.90;96135.91;5040322;28;20017;-33
2023/05/29 00:51:43;;;;;;;4.68;3.50;;;;;;;23.41;46.28;96137.16;5033227;28;20357;-33
2023/05/29 00:54:12;;;;;;;4.57;3.28;;;;;;;23.43;45.95;96134.63;5040218;28;20416;-32
2023/05/29 00:56:44;;;;;;;6.65;3.22;;;;;;;23.43;46.43;96129.09;5033213;28;20033;-32
2023/05/29 00:59:11;;;;;;;3.95;2.85;;;;;;;23.42;46.47;96133.88;5033276;28;20080;-33
2023/05/29 01:01:38;;;;;;;4.43;3.33;;;;;;;23.50;45.84;96125.72;5038018;28;20452;-33
2023/05/29 01:04:06;;;;;;;5.25;3.45;;;;;;;23.31;46.36;96124.94;5035280;28;20056;-33
2023/05/29 01:06:35;;;;;;;4.32;3.00;;;;;;;23.29;46.63;96128.22;5039741;28;20025;-32
2023/05/29 01:09:00;;;;;;;6.00;3.42;;;;;;;23.02;46.76;96127.22;5034226;28;20040;-33
2023/05/29 01:11:40;;;;;;;4.40;3.53;;;;;;;22.97;46.64;96118.97;5043980;28;20025;-33
2023/05/29 01:14:09;;;;;;;4.85;3.13;;;;;;;23.29;46.27;96117.91;5036385;28;20021;-33
2023/05/29 01:16:51;;;;;;;4.97;3.50;;;;;;;23.13;46.05;96121.56;5044006;28;20432;-32
2023/05/29 01:19:36;;;;;;;4.60;2.80;;;;;;;23.04;46.79;96129.47;5043650;28;20029;-32
2023/05/29 01:22:04;;;;;;;5.32;3.85;;;;;;;23.04;46.50;96119.16;5038603;28;20029;-33
2023/05/29 01:24:50;;;;;;;5.88;3.40;;;;;;;23.20;46.22;96123.78;5036475;28;20083;-33
2023/05/29 01:27:18;;;;;;;4.95;3.15;;;;;;;23.30;45.77;96124.19;5043741;28;20028;-33
2023/05/29 01:29:46;;;;;;;4.97;3.78;;;;;;;23.04;46.08;96118.41;5036567;28;20108;-32
2023/05/29 01:32:11;;;;;;;6.28;3.45;;;;;;;23.02;46.27;96116.16;5042810;28;20025;-33
2023/05/29 01:34:37;;;;;;;4.47;3.40;;;;;;;23.02;46.72;96127.22;5043851;28;20025;-32
2023/05/29 01:37:02;;;;;;;3.67;2.78;;;;;;;22.90;46.77;96117.50;5036598;28;20021;-32
2023/05/29 01:39:29;;;;;;;7.25;3.58;;;;;;;22.98;46.40;96120.47;5036435;28;20029;-32
2023/05/29 01:41:55;;;;;;;5.53;3.40;;;;;;;22.95;46.37;96122.25;5036153;28;20406;-33
2023/05/29 01:44:22;;;;;;;3.72;3.03;;;;;;;22.89;46.88;96124.31;5041446;28;20025;-32
2023/05/29 01:46:49;;;;;;;5.72;3.13;;;;;;;23.12;46.30;96127.66;5038272;28;20116;-33
2023/05/29 01:49:15;;;;;;;4.85;2.97;;;;;;;23.11;46.72;96126.16;5039173;28;20383;-33
2023/05/29 01:51:41;;;;;;;4.82;3.05;;;;;;;23.04;46.95;96127.44;5046316;28;20021;-32
2023/05/29 01:54:07;;;;;;;4.93;3.22;;;;;;;23.01;46.79;96136.78;5042978;28;20134;-32
2023/05/29 01:56:33;;;;;;;4.00;3.47;;;;;;;23.06;46.75;96132.47;5035772;28;20057;-32
2023/05/29 01:59:01;;;;;;;5.10;3.35;;;;;;;22.94;46.93;96129.06;5036091;28;20036;-33
2023/05/29 02:01:27;;;;;;;6.60;3.42;;;;;;;22.91;47.10;96138.38;5035431;28;20022;-32
2023/05/29 02:03:52;;;;;;;5.03;3.25;;;;;;;23.08;47.10;96139.00;5034450;28;20476;-33
2023/05/29 02:06:18;;;;;;;4.72;3.38;;;;;;;23.06;47.04;96138.75;5037725;28;20114;-32
2023/05/29 02:08:44;;;;;;;4.85;3.40;;;;;;;23.05;46.93;96137.25;5040609;28;20026;-32
2023/05/29 02:11:09;;;;;;;5.88;4.00;;;;;;;22.93;47.39;96135.84;5042834;28;20033;-33
2023/05/29 02:13:35;;;;;;;5.88;4.15;;;;;;;23.10;47.02;96135.72;5035579;28;20033;-32
2023/05/29 02:16:00;;;;;;;4.03;3.38;;;;;;;23.03;47.42;96128.72;5035436;28;20025;-32
2023/05/29 02:18:26;;;;;;;6.05;3.78;;;;;;;23.08;47.02;96127.91;5035633;28;20025;-33
2023/05/29 02:20:51;;;;;;;6.28;3.75;;;;;;;23.16;46.75;96117.03;5035163;28;20448;-32
2023/05/29 02:23:17;;;;;;;4.97;3.75;;;;;;;22.95;46.99;96124.28;5041830;28;20025;-33
2023/05/29 02:25:42;;;;;;;4.75;3.63;;;;;;;22.93;47.48;96114.47;5041977;28;20091;-33
2023/05/29 02:28:08;;;;;;;5.18;3.50;;;;;;;23.00;47.43;96115.91;5035350;28;20036;-32
2023/05/29 02:30:34;;;;;;;5.35;3.33;;;;;;;22.87;47.37;96115.81;5035345;28;20018;-33
2023/05/29 02:33:00;;;;;;;4.95;3.80;;;;;;;23.03;47.39;96116.91;5041462;28;20033;-32
2023/05/29 02:35:25;;;;;;;4.32;3.28;;;;;;;22.90;47.49;96111.97;5034167;28;20025;-32
2023/05/29 02:37:52;;;;;;;4.85;3.70;;;;;;;22.97;47.64;96108.66;5035419;28;20052;-32
2023/05/29 02:40:18;;;;;;;6.70;3.80;;;;;;;22.76;47.78;96111.09;5042048;28;20060;-33
2023/05/29 02:42:44;;;;;;;5.82;3.63;;;;;;;22.93;47.41;96117.25;5034702;28;20388;-32
2023/05/29 02:45:09;;;;;;;5.72;3.80;;;;;;;22.82;47.95;96117.34;5034871;28;20117;-32
2023/05/29 02:47:36;;;;;;;5.43;4.07;;;;;;;22.84;47.45;96109.28;5034982;28;20056;-32
2023/05/29 02:50:02;;;;;;;7.38;3.45;;;;;;;22.86;47.85;96119.81;5041837;28;20108;-33
2023/05/29 02:52:28;;;;;;;6.03;4.10;;;;;;;22.81;47.91;96107.53;5039847;28;20031;-32
2023/05/29 02:54:54;;;;;;;5.40;4.20;;;;;;;22.76;48.18;96108.31;5036951;28;20049;-32
2023/05/29 02:57:20;;;;;;;4.50;3.60;;;;;;;22.83;47.71;96115.31;5041829;28;20021;-32
2023/05/29 02:59:46;;;;;;;4.57;3.58;;;;;;;22.71;47.96;96124.94;5034465;28;20070;-33
2023/05/29 03:02:11;;;;;;;5.22;3.75;;;;;;;22.91;47.84;96122.53;5034673;28;20022;-33
2023/05/29 03:04:37;;;;;;;6.57;3.85;;;;;;;22.81;48.03;96117.84;5034618;28;20022;-32
2023/05/29 03:07:02;;;;;;;4.78;3.90;;;;;;;22.91;47.59;96117.00;5034262;28;20017;-32
2023/05/29 03:09:27;;;;;;;5.57;3.75;;;;;;;22.88;48.09;96122.81;5049316;28;20059;-32
2023/05/29 03:11:53;;;;;;;6.30;3.85;;;;;;;22.92;47.52;96118.50;5040226;28;20021;-32
2023/05/29 03:14:18;;;;;;;4.38;3.65;;;;;;;22.80;47.92;96119.84;5035762;28;20115;-33
2023/05/29 03:16:45;;;;;;;6.60;3.28;;;;;;;22.91;48.07;96121.78;5034440;28;20029;-32
2023/05/29 03:19:10;;;;;;;6.47;4.15;;;;;;;22.87;47.57;96119.28;5034048;28;20037;-32
2023/05/29 03:21:36;;;;;;;5.80;3.80;;;;;;;22.80;47.73;96116.34;5041559;28;20384;-32
2023/05/29 03:24:02;;;;;;;5.93;3.85;;;;;;;22.82;47.76;96113.81;5033974;28;20030;-32
2023/05/29 03:26:28;;;;;;;6.53;4.40;;;;;;;22.89;47.29;96121.53;5048713;28;20057;-32
2023/05/29 03:28:54;;;;;;;7.38;4.40;;;;;;;23.04;46.85;96110.84;5040818;28;20159;-33
2023/05/29 03:31:19;;;;;;;5.25;3.90;;;;;;;22.88;47.46;96115.25;5039808;28;20029;-32
2023/05/29 03:33:45;;;;;;;6.72;4.25;;;;;;;23.04;46.87;96118.41;5034244;28;20065;-32
2023/05/29 03:36:11;;;;;;;6.60;4.28;;;;;;;23.06;46.87;96122.16;5032916;28;20025;-33
2023/05/29 03:38:36;;;;;;;5.85;4.30;;;;;;;22.95;47.41;96116.72;5033816;28;20024;-32
2023/05/29 03:41:01;;;;;;;6.78;4.35;;;;;;;22.93;46.86;96119.25;5036712;28;20448;-32
2023/05/29 03:43:27;;;;;;;7.45;4.00;;;;;;;22.90;47.07;96111.97;5043399;28;20488;-32
2023/05/29 03:45:52;;;;;;;8.85;4.45;;;;;;;22.74;47.17;96107.34;5041343;28;20099;-33
2023/05/29 03:48:18;;;;;;;6.25;4.32;;;;;;;22.94;47.25;96115.22;5033810;28;20057;-33
2023/05/29 03:50:45;;;;;;;7.65;4.82;;;;;;;22.72;47.45;96107.84;5040411;28;20025;-32
2023/05/29 03:53:10;;;;;;;6.25;4.47;;;;;;;22.86;47.56;96108.78;5040638;28;20052;-32
2023/05/29 03:55:36;;;;;;;7.20;4.15;;;;;;;22.80;47.60;96110.81;5033893;28;20037;-33
2023/05/29 03:58:01;;;;;;;5.43;3.95;;;;;;;22.79;47.65;96106.53;5040803;28;20017;-32
2023/05/29 04:00:27;;;;;;;7.43;4.43;;;;;;;22.81;47.06;96117.84;5037228;28;20087;-32
2023/05/29 04:02:52;;;;;;;6.13;4.15;;;;;;;22.68;47.70;96109.38;5036948;28;20021;-33
2023/05/29 04:05:18;;;;;;;6.57;4.15;;;;;;;22.91;46.84;96110.72;5033685;28;20017;-32
2023/05/29 04:07:43;;;;;;;5.75;4.43;;;;;;;22.85;46.76;96107.25;5038758;28;20017;-32
2023/05/29 04:10:09;;;;;;;6.57;4.15;;;;;;;22.69;47.84;96106.09;5035659;28;20028;-32
2023/05/29 04:12:35;;;;;;;7.25;4.57;;;;;;;22.90;47.03;96103.69;5033594;28;20020;-32
2023/05/29 04:15:00;;;;;;;7.85;4.50;;;;;;;22.87;46.68;96110.28;5040915;28;20377;-33
2023/05/29 04:17:26;;;;;;;8.90;4.78;;;;;;;22.97;46.70;96103.13;5041078;28;20044;-32
2023/05/29 04:19:51;;;;;;;6.30;4.28;;;;;;;22.86;46.76;96111.53;5033127;28;20032;-32
2023/05/29 04:22:17;;;;;;;5.53;4.50;;;;;;;22.77;47.14;96106.31;5033080;28;20033;-33
2023/05/29 04:24:42;;;;;;;5.80;4.63;;;;;;;22.83;46.99;96107.78;5033916;28;20017;-33
2023/05/29 04:27:12;;;;;;;7.03;4.40;;;;;;;22.83;47.07;96110.53;5046286;28;20381;-32
2023/05/29 04:29:44;;;;;;;6.40;4.35;;;;;;;22.77;47.10;96109.06;5035427;28;20033;-32
2023/05/29 04:32:11;;;;;;;10.10;4.60;;;;;;;22.68;47.80;96114.91;5045242;28;20024;-32
2023/05/29 04:34:37;;;;;;;6.80;4.75;;;;;;;22.83;47.23;96113.31;5030657;28;20026;-32
2023/05/29 04:37:03;;;;;;;7.55;4.30;;;;;;;22.85;47.25;96116.31;5033295;28;20035;-33
2023/05/29 04:39:29;;;;;;;5.60;4.28;;;;;;;22.96;46.96;96117.47;5033186;28;20338;-32
2023/05/29 04:41:56;;;;;;;6.28;4.50;;;;;;;22.97;47.08;96113.44;5034954;28;20079;-32
2023/05/29 04:44:22;;;;;;;5.32;4.20;;;;;;;22.73;47.48;96116.88;5040524;28;20408;-32
2023/05/29 04:46:48;;;;;;;7.25;4.63;;;;;;;22.97;46.83;96114.19;5044485;28;20039;-32
2023/05/29 04:49:14;;;;;;;7.90;4.07;;;;;;;22.85;47.09;96107.25;5037333;28;20101;-32
2023/05/29 04:51:42;;;;;;;7.40;4.95;;;;;;;22.83;47.25;96109.78;5037273;28;20421;-32
2023/05/29 04:54:11;;;;;;;8.50;4.68;;;;;;;22.81;47.19;96113.06;5035708;28;20053;-33
2023/05/29 04:56:37;;;;;;;5.75;3.92;;;;;;;22.92;46.87;96110.19;5043614;28;20061;-32
2023/05/29 04:59:03;;;;;;;5.63;4.20;;;;;;;23.07;46.45;96118.13;5036981;28;20025;-32
2023/05/29 05:01:28;;;;;;;6.45;4.50;;;;;;;22.88;47.15;96106.22;5037024;28;20017;-33
2023/05/29 05:03:57;;;;;;;5.20;4.47;;;;;;;22.97;46.95;96119.72;5044144;28;20045;-33
2023/05/29 05:06:25;;;;;;;6.15;4.10;;;;;;;22.88;46.87;96122.81;5043012;28;20544;-32
2023/05/29 05:08:51;;;;;;;6.75;4.40;;;;;;;22.99;46.67;96122.72;5044106;28;20078;-33
2023/05/29 05:11:17;;;;;;;6.40;4.40;;;;;;;22.78;47.27;96124.41;5036673;28;20116;-34
2023/05/29 05:13:43;;;;;;;7.13;4.30;;;;;;;22.75;47.44;96133.72;5036498;28;20025;-32
2023/05/29 05:16:08;;;;;;;5.45;4.15;;;;;;;22.79;47.24;96134.19;5043369;28;20376;-34
2023/05/29 05:18:34;;;;;;;5.97;4.30;;;;;;;22.91;46.76;96128.06;5039155;28;20125;-33
2023/05/29 05:20:59;;;;;;;6.20;4.28;;;;;;;22.78;46.94;96129.94;5040142;28;20021;-32
2023/05/29 05:23:25;;;;;;;5.38;4.20;;;;;;;22.91;47.03;96132.84;5043539;28;20094;-33
2023/05/29 05:25:50;;;;;;;7.18;4.47;;;;;;;23.08;46.65;96127.91;5040017;28;20445;-32
2023/05/29 05:28:15;;;;;;;6.10;4.47;;;;;;;22.77;47.17;96125.66;5039839;28;20049;-32
2023/05/29 05:30:41;;;;;;;7.38;4.28;;;;;;;22.85;46.84;96129.38;5036327;28;20508;-33
2023/05/29 05:33:07;;;;;;;8.82;4.35;;;;;;;22.95;46.45;96122.25;5048733;28;20047;-32
2023/05/29 05:35:33;;;;;;;5.63;3.97;;;;;;;22.98;46.18;96126.75;5043244;28;20104;-32
2023/05/29 05:37:58;;;;;;;7.15;4.70;;;;;;;23.06;46.14;96118.63;5039245;28;20396;-32
2023/05/29 05:40:25;;;;;;;7.22;4.20;;;;;;;22.78;46.54;96119.63;5039994;28;20021;-32
2023/05/29 05:42:51;;;;;;;7.07;4.50;;;;;;;23.06;46.16;96124.91;5035177;28;20025;-32
2023/05/29 05:45:17;;;;;;;6.72;4.70;;;;;;;23.02;45.96;96124.44;5035548;28;20485;-33
2023/05/29 05:47:42;;;;;;;5.32;4.05;;;;;;;22.96;46.16;96123.75;5035878;28;20497;-33
2023/05/29 05:50:08;;;;;;;4.72;4.20;;;;;;;23.01;45.70;96124.97;5050717;28;20029;-32
2023/05/29 05:52:34;;;;;;;5.93;4.32;;;;;;;22.82;46.10;96120.09;5042483;28;20588;-32
2023/05/29 05:55:00;;;;;;;6.47;4.28;;;;;;;22.90;46.24;96121.03;5035411;28;20053;-32
2023/05/29 05:57:26;;;;;;;8.65;4.38;;;;;;;22.94;45.90;96126.28;5034602;28;20109;-32
2023/05/29 05:59:51;;;;;;;7.50;4.25;;;;;;;23.03;45.60;96117.66;5035587;28;20022;-33
2023/05/29 06:02:17;;;;;;;7.28;4.03;;;;;;;23.02;45.52;96127.22;5036008;28;20016;-33
2023/05/29 06:04:43;;;;;;;5.20;4.00;;;;;;;23.07;45.39;96120.88;5041098;28;20013;-32
2023/05/29 06:07:08;;;;;;;5.75;4.03;;;;;;;22.97;45.79;96125.25;5037386;28;20453;-33
2023/05/29 06:09:34;;;;;;;5.38;4.07;;;;;;;23.19;44.75;96130.59;5034115;28;20049;-32
2023/05/29 06:12:00;;;;;;;5.55;4.07;;;;;;;23.07;45.18;96122.91;5035607;28;20055;-32
2023/05/29 06:14:25;;;;;;;6.05;4.13;;;;;;;23.02;45.09;96132.75;5035742;28;20029;-33
2023/05/29 06:16:51;;;;;;;5.70;4.03;;;;;;;23.05;45.14;96128.94;5035586;28;20021;-33
2023/05/29 06:19:16;;;;;;;5.07;4.00;;;;;;;23.13;45.33;96137.41;5035736;28;20087;-33
2023/05/29 06:21:42;;;;;;;7.55;4.20;;;;;;;23.21;45.04;96128.06;5042413;28;20060;-32
2023/05/29 06:24:07;;;;;;;6.63;3.85;;;;;;;23.17;45.09;96133.13;5041565;28;20037;-33
2023/05/29 06:26:33;;;;;;;5.38;3.58;;;;;;;23.00;45.07;96126.22;5040698;28;20017;-32
2023/05/29 06:28:59;;;;;;;5.53;3.55;;;;;;;23.13;44.63;96121.56;5035008;28;20017;-32
2023/05/29 06:31:24;;;;;;;5.22;4.00;;;;;;;23.08;44.65;96127.91;5041865;28;20079;-33
2023/05/29 06:33:50;;;;;;;7.38;4.03;;;;;;;22.95;45.23;96127.78;5035577;28;20021;-33
2023/05/29 06:36:16;;;;;;;6.07;3.97;;;;;;;23.24;44.56;96127.00;5035347;28;20025;-33
2023/05/29 06:38:48;;;;;;;8.98;4.28;;;;;;;23.07;44.83;96128.44;5042384;28;20469;-32
2023/05/29 06:41:14;;;;;;;5.30;3.70;;;;;;;23.26;44.67;96121.69;5042108;28;20029;-33
2023/05/29 06:43:39;;;;;;;4.32;3.67;;;;;;;23.14;45.03;96123.06;5042061;28;20031;-32
2023/05/29 06:46:04;;;;;;;5.93;3.75;;;;;;;23.20;44.90;96121.03;5035084;28;20023;-33
2023/05/29 06:48:34;;;;;;;4.65;3.67;;;;;;;23.18;44.93;96112.50;5034810;28;20021;-33
2023/05/29 06:51:00;;;;;;;6.10;3.95;;;;;;;23.27;44.51;96109.38;5034530;28;20021;-32
2023/05/29 06:53:25;;;;;;;6.95;3.90;;;;;;;23.05;44.90;96125.44;5039472;28;20226;-34
2023/05/29 06:55:55;;;;;;;5.80;3.80;;;;;;;23.34;44.79;96124.66;5037542;28;20025;-32
2023/05/29 06:58:20;;;;;;;6.15;3.90;;;;;;;23.12;45.19;96120.06;5027687;28;20017;-33
2023/05/29 07:00:46;;;;;;;5.60;3.72;;;;;;;23.38;44.54;96122.34;5034835;28;20377;-32
2023/05/29 07:03:12;;;;;;;5.40;4.15;;;;;;;23.38;44.91;96121.59;5034596;28;20053;-32
2023/05/29 07:05:38;;;;;;;4.68;3.58;;;;;;;23.39;44.63;96136.94;5033695;28;20040;-33
2023/05/29 07:08:03;;;;;;;6.55;4.18;;;;;;;23.41;44.79;96137.16;5041752;28;20070;-34
2023/05/29 07:10:28;;;;;;;11.35;4.47;;;;;;;23.58;44.10;96133.00;5041794;28;20017;-34
2023/05/29 07:12:54;;;;;;;9.10;4.78;;;;;;;23.46;44.23;96139.13;5034570;28;20021;-33
2023/05/29 07:15:20;;;;;;;8.73;4.53;;;;;;;23.44;44.43;96144.44;5034292;28;20192;-33
2023/05/29 07:17:45;;;;;;;7.35;5.18;;;;;;;23.38;44.87;96143.72;5034154;28;20025;-33
2023/05/29 07:20:11;;;;;;;7.30;5.07;;;;;;;23.49;44.79;96136.06;5034024;28;20028;-32
2023/05/29 07:22:36;;;;;;;8.55;5.57;;;;;;;23.44;45.32;96144.44;5041202;28;20021;-33
2023/05/29 07:25:03;;;;;;;9.55;4.57;;;;;;;23.62;44.87;96138.97;5034305;28;20516;-33
2023/05/29 07:27:28;;;;;;;7.40;4.40;;;;;;;23.60;44.94;96149.84;5034492;28;20036;-33
2023/05/29 07:29:54;;;;;;;8.52;5.00;;;;;;;23.56;45.00;96140.31;5041417;28;20017;-33
2023/05/29 07:32:21;;;;;;;6.88;4.25;;;;;;;23.64;44.95;96141.22;5040997;28;20359;-33
2023/05/29 07:34:49;;;;;;;7.68;4.53;;;;;;;23.58;45.42;96133.00;5034350;28;20488;-33
2023/05/29 07:37:15;;;;;;;7.05;4.43;;;;;;;23.46;45.64;96130.84;5034228;28;20021;-34
2023/05/29 07:39:40;;;;;;;7.43;4.40;;;;;;;23.61;45.15;96131.94;5034063;28;20033;-32
2023/05/29 07:42:06;;;;;;;7.18;3.83;;;;;;;23.64;45.18;96135.69;5037379;28;20066;-33
2023/05/29 07:44:32;;;;;;;5.97;4.10;;;;;;;23.67;44.97;96133.91;5037559;28;20032;-33
2023/05/29 07:46:57;;;;;;;9.10;4.60;;;;;;;23.53;45.00;96135.81;5038291;28;20029;-33
2023/05/29 07:49:23;;;;;;;8.77;4.00;;;;;;;23.80;44.58;96128.47;5038654;28;20050;-33
2023/05/29 07:51:48;;;;;;;5.80;4.13;;;;;;;23.76;44.85;96139.81;5036297;28;20021;-33
2023/05/29 07:54:17;;;;;;;10.23;4.30;;;;;;;23.72;45.04;96122.78;5033804;28;20045;-32
2023/05/29 07:56:43;;;;;;;9.93;4.20;;;;;;;23.55;45.12;96127.72;5033930;28;20029;-33
2023/05/29 07:59:09;;;;;;;8.82;3.88;;;;;;;23.79;44.92;96138.78;5039117;28;20033;-33
2023/05/29 08:01:35;;;;;;;9.30;4.10;;;;;;;23.84;44.69;96126.16;5038132;28;20099;-33
2023/05/29 08:04:01;;;;;;;13.27;4.57;;;;;;;23.67;45.32;96133.91;5035936;28;20021;-32
2023/05/29 08:06:26;;;;;;;9.40;4.20;;;;;;;23.62;44.83;96135.44;5033571;28;20021;-32
2023/05/29 08:08:52;;;;;;;10.52;4.10;;;;;;;23.75;44.66;96141.09;5040894;28;20013;-33
2023/05/29 08:11:18;;;;;;;13.88;4.65;;;;;;;23.72;44.78;96142.16;5033841;28;20381;-32
2023/05/29 08:13:43;;;;;;;8.52;3.83;;;;;;;23.71;44.84;96137.88;5046426;28;20030;-33
2023/05/29 08:16:09;;;;;;;6.90;3.90;;;;;;;23.79;45.18;96135.25;5040695;28;20033;-33
2023/05/29 08:18:35;;;;;;;6.93;3.88;;;;;;;23.79;44.68;96132.50;5035577;28;20013;-32
2023/05/29 08:21:00;;;;;;;7.68;3.85;;;;;;;23.79;44.83;96132.50;5037512;28;20440;-32
2023/05/29 08:23:26;;;;;;;6.75;4.05;;;;;;;23.72;44.94;96133.09;5034660;28;20025;-33
2023/05/29 08:25:51;;;;;;;9.95;4.03;;;;;;;23.82;44.55;96140.53;5037605;28;20105;-33
2023/05/29 08:28:17;;;;;;;8.82;4.38;;;;;;;23.64;44.95;96138.44;5044359;28;20028;-33
2023/05/29 08:30:42;;;;;;;7.55;3.72;;;;;;;23.66;44.81;96143.47;5039143;28;20025;-33
2023/05/29 08:33:08;;;;;;;6.25;4.28;;;;;;;23.75;44.76;96152.16;5042806;28;20384;-33
2023/05/29 08:35:33;;;;;;;6.55;3.85;;;;;;;23.73;44.76;96148.44;5037348;28;20070;-33
2023/05/29 08:37:59;;;;;;;5.05;3.55;;;;;;;23.67;44.76;96145.72;5037240;28;20018;-33
2023/05/29 08:40:25;;;;;;;7.03;3.88;;;;;;;23.75;44.45;96149.38;5037018;28;20030;-33
2023/05/29 08:42:57;;;;;;;7.55;3.95;;;;;;;23.79;44.25;96151.88;5037657;28;20032;-34
2023/05/29 08:45:24;;;;;;;5.27;3.93;;;;;;;23.73;44.53;96151.97;5044701;28;20122;-32
2023/05/29 08:47:52;;;;;;;9.88;3.90;;;;;;;23.66;44.25;96155.28;5044470;28;20029;-33
2023/05/29 08:50:20;;;;;;;8.52;3.88;;;;;;;23.73;44.35;96160.25;5044544;28;20021;-32
2023/05/29 08:52:46;;;;;;;9.40;4.15;;;;;;;23.79;44.36;96152.63;5036791;28;20017;-32
2023/05/29 08:55:11;;;;;;;5.22;3.95;;;;;;;23.69;44.47;96157.03;5043711;28;20491;-33
2023/05/29 08:57:40;;;;;;;6.85;4.43;;;;;;;23.76;44.36;96150.91;5036613;28;20438;-33
2023/05/29 09:00:11;;;;;;;6.30;3.80;;;;;;;23.78;44.40;96151.13;5037028;28;20029;-32
2023/05/29 09:02:37;;;;;;;9.13;4.57;;;;;;;23.74;44.95;96150.66;5037045;28;20025;-33
2023/05/29 09:05:03;;;;;;;10.85;4.20;;;;;;;23.80;45.07;96153.38;5035784;28;20581;-33
2023/05/29 09:07:30;;;;;;;9.07;4.13;;;;;;;23.77;44.99;96155.16;5039960;28;20025;-33
2023/05/29 09:09:55;;;;;;;6.50;4.28;;;;;;;23.83;44.73;96160.66;5040723;28;20013;-33
2023/05/29 09:12:21;;;;;;;8.18;4.20;;;;;;;23.85;44.77;96156.09;5044034;28;20060;-32
2023/05/29 09:14:48;;;;;;;10.10;4.47;;;;;;;23.87;44.92;96156.31;5043507;28;20018;-33
2023/05/29 09:17:15;;;;;;;8.13;4.30;;;;;;;23.90;44.99;96160.81;5036362;28;20474;-32
2023/05/29 09:19:41;;;;;;;15.30;5.00;;;;;;;23.87;44.97;96150.75;5036427;28;20029;-33
2023/05/29 09:22:14;;;;;;;8.82;4.10;;;;;;;23.89;44.98;96161.31;5036541;28;20040;-33
2023/05/29 09:24:41;;;;;;;10.77;4.57;;;;;;;23.89;44.71;96159.31;5037117;28;20477;-32
2023/05/29 09:27:08;;;;;;;17.88;5.47;;;;;;;23.88;44.84;96159.81;5042296;28;20416;-32
2023/05/29 09:29:38;;;;;;;9.93;4.60;;;;;;;23.88;44.84;96159.81;5035935;28;20398;-32
2023/05/29 09:32:16;;;;;;;9.43;4.13;;;;;;;23.92;44.46;96161.03;5049096;28;20030;-33
2023/05/29 09:34:42;;;;;;;7.57;3.97;;;;;;;23.82;44.35;96162.66;5036568;28;20491;-33
2023/05/29 09:37:10;;;;;;;9.57;3.63;;;;;;;23.90;44.49;96160.81;5035808;28;20524;-33
2023/05/29 09:39:42;;;;;;;7.25;4.63;;;;;;;23.98;43.95;96166.53;5034980;28;20026;-32
2023/05/29 09:42:09;;;;;;;9.55;3.80;;;;;;;23.97;43.69;96156.72;5029622;28;20412;-32
2023/05/29 09:44:35;;;;;;;5.88;3.92;;;;;;;24.04;43.55;96158.13;5043472;28;20032;-33
2023/05/29 09:47:00;;;;;;;6.55;4.03;;;;;;;24.00;43.92;96164.72;5042141;28;20104;-32
2023/05/29 09:49:27;;;;;;;7.97;4.00;;;;;;;23.99;44.08;96154.91;5041374;28;20469;-32
2023/05/29 09:51:56;;;;;;;5.63;3.53;;;;;;;24.09;44.21;96155.31;5037687;28;20025;-33
2023/05/29 09:54:21;;;;;;;11.57;4.30;;;;;;;24.00;43.88;96164.72;5035883;28;20056;-34
2023/05/29 09:56:47;;;;;;;13.80;4.32;;;;;;;23.97;44.22;96159.47;5035772;28;20022;-33
2023/05/29 09:59:14;;;;;;;6.32;4.18;;;;;;;24.10;43.43;96161.59;5044765;28;20136;-33
2023/05/29 10:01:42;;;;;;;10.52;3.83;;;;;;;24.09;41.97;96162.88;5040868;28;20029;-32
2023/05/29 10:04:11;;;;;;;5.00;4.00;;;;;;;23.95;42.57;96160.00;5035800;28;20025;-33
2023/05/29 10:06:49;;;;;;;7.82;3.90;;;;;;;24.11;42.53;96160.31;5034385;28;20071;-33
2023/05/29 10:09:18;;;;;;;5.40;3.65;;;;;;;24.11;42.79;96154.78;5043408;28;20096;-33
2023/05/29 10:11:47;;;;;;;9.40;4.68;;;;;;;24.13;43.26;96157.75;5035416;28;20017;-33
2023/05/29 10:14:21;;;;;;;9.43;4.10;;;;;;;24.17;43.09;96153.44;5036145;28;20021;-32
2023/05/29 10:16:47;;;;;;;8.35;3.92;;;;;;;24.10;42.95;96153.28;5042323;28;20026;-33
2023/05/29 10:19:24;;;;;;;10.32;4.03;;;;;;;24.19;42.46;96156.44;5035160;28;20457;-33
2023/05/29 10:21:53;;;;;;;9.30;3.78;;;;;;;24.15;42.64;96155.22;5029537;28;20401;-33
2023/05/29 10:24:19;;;;;;;4.55;3.90;;;;;;;24.13;42.46;96152.97;5034871;28;20040;-33
2023/05/29 10:26:48;;;;;;;5.97;3.70;;;;;;;24.13;41.95;96152.97;5035719;28;20029;-33
2023/05/29 10:29:36;;;;;;;6.60;3.70;;;;;;;24.11;42.24;96152.00;5046750;28;20021;-33
2023/05/29 10:32:24;;;;;;;7.70;3.83;;;;;;;24.14;42.40;96153.72;5040713;28;20037;-33
2023/05/29 10:35:04;;;;;;;15.43;5.05;;;;;;;24.14;42.47;96145.41;5035342;28;20021;-33
2023/05/29 10:37:55;;;;;;;15.82;4.57;;;;;;;24.20;42.51;96148.88;5034659;28;20029;-33
2023/05/29 10:40:25;;;;;;;9.50;5.07;;;;;;;24.18;42.63;96154.94;5030331;28;20018;-33
2023/05/29 10:42:58;;;;;;;13.68;4.07;;;;;;;24.23;42.94;96154.13;5035552;28;20021;-33
2023/05/29 10:45:29;;;;;;;10.02;3.38;;;;;;;24.23;42.22;96151.34;5040611;28;20024;-32
2023/05/29 10:47:55;;;;;;;9.23;4.00;;;;;;;24.24;41.31;96152.09;5036782;28;20033;-33
2023/05/29 10:50:46;;;;;;;8.27;3.78;;;;;;;24.28;41.21;96155.31;5048401;28;20024;-33
2023/05/29 10:53:22;;;;;;;5.57;3.38;;;;;;;24.28;40.58;96158.09;5041607;28;20054;-34
2023/05/29 10:55:48;;;;;;;5.15;3.30;;;;;;;24.27;40.68;96151.06;5034699;28;20030;-32
2023/05/29 10:58:20;;;;;;;10.43;3.28;;;;;;;24.31;40.81;96145.97;5035192;28;20024;-33
2023/05/29 11:00:47;;;;;;;6.25;3.28;;;;;;;24.31;40.90;96148.75;5034625;28;20053;-34
2023/05/29 11:03:22;;;;;;;5.68;3.35;;;;;;;24.28;41.10;96147.00;5042107;28;20525;-32
2023/05/29 11:06:02;;;;;;;5.80;3.70;;;;;;;24.35;40.83;96154.75;5040384;28;20083;-33
2023/05/29 11:08:35;;;;;;;4.78;3.38;;;;;;;24.29;40.84;96143.72;5042784;28;20022;-33
2023/05/29 11:11:01;;;;;;;6.78;3.25;;;;;;;24.28;40.81;96153.31;5033257;28;20018;-33
2023/05/29 11:13:30;;;;;;;4.38;3.20;;;;;;;24.37;40.51;96143.09;5047914;28;20025;-33
2023/05/29 11:16:20;;;;;;;7.72;3.30;;;;;;;24.40;40.69;96148.34;5034249;28;20481;-33
2023/05/29 11:18:48;;;;;;;3.90;3.03;;;;;;;24.30;40.35;96148.00;5037196;28;20038;-33
2023/05/29 11:21:34;;;;;;;4.32;3.10;;;;;;;24.40;39.99;96147.59;5041295;28;20027;-32
2023/05/29 11:24:02;;;;;;;5.35;3.30;;;;;;;24.36;40.21;96150.66;5028949;28;20401;-34
2023/05/29 11:26:30;;;;;;;4.95;3.30;;;;;;;24.40;39.75;96142.81;5034599;28;20270;-32
2023/05/29 11:29:06;;;;;;;5.85;2.85;;;;;;;24.45;39.86;96138.47;5033767;28;20056;-34
2023/05/29 11:31:34;;;;;;;4.68;3.20;;;;;;;24.45;39.76;96138.47;5041793;28;20449;-33